Britney Lee — WDC2895 — position and weather

sailwx.info

Track history (hours):
 
Tides and Currents Weather Stations Pressure Air Temp Water Temp Dewpoint Dewpoint Depression Visibility Wind Speed Wind Dir Waves Ship Positions

Britney Lee

Owner: Western Rivers Boat Management, Inc., Paducah, KY. More information available from US FCC via Universal Licensing System and Coast Guard Vessel Documentation Center.

Last reported at 2018-Apr-11 08:18 UTC. Time now 2018-Apr-24 08:46 UTC.
Position N 38°58' W 090°23'.
Warning: this ship's position is 13 days out of date.

Length 44 m; draft 3 m.

Type: Tow > 200 m length. MMSI: 367129650.

Date/timePositionNaut miles runAvg speedWind from/ knotsBaromVisibWave heightAir tempDewpointWater temp
2018-Apr-11 08:18N 38°58' W 090°23'1 4.3
2018-Apr-11 08:00N 38°57' W 090°22'2 4.4
2018-Apr-11 07:30N 38°56' W 090°20'2 4.3
2018-Apr-11 07:00N 38°55' W 090°17'2 4.5
2018-Apr-11 06:30N 38°55' W 090°14'2 4.2
2018-Apr-11 06:00N 38°54' W 090°12'2 4.6
2018-Apr-11 05:30N 38°52' W 090°10'1 1.4
2018-Apr-11 05:00N 38°52' W 090°09'0 0.5
2018-Apr-11 04:30N 38°52' W 090°09'1 1.8
2018-Apr-11 04:00N 38°51' W 090°08'1 1.8
2018-Apr-11 03:30N 38°51' W 090°07'2 3.4
2018-Apr-11 03:00N 38°49' W 090°07'1 1.2
2018-Apr-11 02:30N 38°49' W 090°07'3 3.9
2018-Apr-11 01:42N 38°46' W 090°08'1 3.2
2018-Apr-11 01:24N 38°45' W 090°09'1 2.4
2018-Apr-11 01:00N 38°44' W 090°10'2 3.0
2018-Apr-11 00:29N 38°43' W 090°10'1 1.5
2018-Apr-10 23:54N 38°42' W 090°11'1 2.4
2018-Apr-10 23:30N 38°41' W 090°11'2 4.6
2018-Apr-10 23:01N 38°39' W 090°11'7 1.3
2018-Apr-10 17:33N 38°33' W 090°15'3 9.0
2018-Apr-10 17:12N 38°35' W 090°12'1 5.3
2018-Apr-10 17:00N 38°36' W 090°12'0 0.2
2018-Apr-10 16:30N 38°36' W 090°12'0 0.0
2018-Apr-10 16:00N 38°36' W 090°12'0 0.0
2018-Apr-10 15:30N 38°36' W 090°12'0 0.0
2018-Apr-10 15:00N 38°36' W 090°12'0 0.0
2018-Apr-10 14:28N 38°36' W 090°12'3 3.6
2018-Apr-10 13:32N 38°33' W 090°15'0 4.9
2018-Apr-10 13:30N 38°33' W 090°15'  
2018-Apr-05 19:19N 38°31' W 090°16'5 5.7
2018-Apr-05 18:25N 38°35' W 090°12'0 0.0
2018-Apr-05 18:00N 38°35' W 090°12'0 0.0
2018-Apr-05 16:40N 38°35' W 090°12'0 0.1
2018-Apr-05 16:18N 38°35' W 090°12'0 0.7
2018-Apr-05 16:00N 38°35' W 090°12'0 0.0
2018-Apr-05 15:30N 38°35' W 090°12'0 0.0
2018-Apr-05 15:00N 38°35' W 090°12'0 0.0
2018-Apr-05 14:30N 38°35' W 090°12'0 0.0
2018-Apr-05 14:00N 38°35' W 090°12'0 0.0
2018-Apr-05 13:30N 38°35' W 090°12'0 0.0
2018-Apr-05 13:00N 38°35' W 090°12'0 0.0
2018-Apr-05 12:30N 38°35' W 090°12'0 0.0
2018-Apr-05 12:00N 38°35' W 090°12'0 0.0
2018-Apr-05 11:30N 38°35' W 090°12'0 0.0
2018-Apr-05 11:00N 38°35' W 090°12'0 0.0
2018-Apr-05 10:30N 38°35' W 090°12'0 0.0
2018-Apr-05 10:00N 38°35' W 090°12'0 0.0
2018-Apr-05 09:30N 38°35' W 090°12'0 0.0
2018-Apr-05 09:00N 38°35' W 090°12'0 0.0
2018-Apr-05 08:30N 38°35' W 090°12'0 0.0
2018-Apr-05 08:00N 38°35' W 090°12'0 0.0
2018-Apr-05 07:30N 38°35' W 090°12'0 0.0
2018-Apr-05 07:00N 38°35' W 090°12'0 0.0
2018-Apr-05 06:30N 38°35' W 090°12'0 0.0
2018-Apr-05 06:00N 38°35' W 090°12'0 0.0
2018-Apr-05 05:30N 38°35' W 090°12'0 0.0
2018-Apr-05 05:00N 38°35' W 090°12'0 0.0
2018-Apr-05 04:30N 38°35' W 090°12'0 0.1
2018-Apr-05 02:47N 38°36' W 090°12'3 9.2
2018-Apr-05 02:30N 38°38' W 090°11'1 2.5
2018-Apr-05 02:00N 38°39' W 090°11'0 0.0
2018-Apr-05 01:28N 38°39' W 090°11'0 0.0
2018-Apr-05 01:00N 38°39' W 090°11'0 0.0
2018-Apr-05 00:28N 38°39' W 090°11'0 0.0
2018-Apr-05 00:00N 38°39' W 090°11'0 0.1
2018-Apr-04 23:30N 38°39' W 090°11'0 0.2
2018-Apr-04 23:00N 38°39' W 090°11'0 0.0
2018-Apr-04 22:08N 38°39' W 090°11'0 3.2
2018-Apr-04 21:59N 38°39' W 090°11'2 3.9
2018-Apr-04 21:30N 38°37' W 090°11'5 3.6
2018-Apr-04 20:06N 38°33' W 090°15'0 3.4
2018-Apr-04 20:00N 38°33' W 090°15'  
2018-Apr-02 15:22N 38°30' W 090°16'3 7.5
2018-Apr-02 15:00N 38°33' W 090°15'4 7.3
2018-Apr-02 14:30N 38°35' W 090°12'0 0.1
2018-Apr-02 13:57N 38°35' W 090°12'0 0.0
2018-Apr-02 12:46N 38°35' W 090°12'0 0.1
2018-Apr-02 12:27N 38°35' W 090°12'0 0.0
2018-Apr-02 11:54N 38°35' W 090°12'0 0.0
2018-Apr-02 11:16N 38°35' W 090°12'0 0.1
2018-Apr-02 10:59N 38°35' W 090°12'3 5.4
2018-Apr-02 10:30N 38°38' W 090°11'4 7.4
2018-Apr-02 10:00N 38°41' W 090°11'1 1.5
2018-Apr-02 09:30N 38°42' W 090°11'1 1.0
2018-Apr-02 09:00N 38°43' W 090°11'1 3.1
2018-Apr-02 08:30N 38°44' W 090°10'2 3.4
2018-Apr-02 07:58N 38°45' W 090°09'2 3.3
2018-Apr-02 07:30N 38°47' W 090°08'2 4.6
2018-Apr-02 07:00N 38°49' W 090°07'3 5.0
2018-Apr-02 06:30N 38°51' W 090°07'2 2.9
2018-Apr-02 05:59N 38°52' W 090°09'1 2.0
2018-Apr-02 05:30N 38°53' W 090°10'2 4.9
2018-Apr-02 05:00N 38°54' W 090°13'1 1.9
2018-Apr-02 04:30N 38°55' W 090°13'0 0.0
2018-Apr-02 04:00N 38°55' W 090°13'0 0.0
2018-Apr-02 03:30N 38°55' W 090°13'0 0.0
2018-Apr-02 03:00N 38°55' W 090°13'0 0.0
2018-Apr-02 02:30N 38°55' W 090°13'0 0.0
2018-Apr-02 02:00N 38°55' W 090°13'0 0.0
2018-Apr-02 01:30N 38°55' W 090°13'0 0.0
2018-Apr-02 01:00N 38°55' W 090°13'0 0.0
2018-Apr-02 00:30N 38°55' W 090°13'0 0.0
2018-Apr-02 00:00N 38°55' W 090°13'0 0.0
2018-Apr-01 23:30N 38°55' W 090°13'0 0.0
2018-Apr-01 23:00N 38°55' W 090°13'0 0.0
2018-Apr-01 22:30N 38°55' W 090°13'2 3.9
2018-Apr-01 22:00N 38°55' W 090°16'3 5.1
2018-Apr-01 21:30N 38°56' W 090°19'3 5.8
2018-Apr-01 21:00N 38°57' W 090°22'3 5.9
2018-Apr-01 20:30N 38°58' W 090°26'3 5.2
2018-Apr-01 20:00N 38°57' W 090°29'2 5.0
2018-Apr-01 19:30N 38°55' W 090°31'2 4.9
2018-Apr-01 19:00N 38°52' W 090°33'2 4.9
2018-Apr-01 18:30N 38°52' W 090°36'2 4.8
2018-Apr-01 18:00N 38°54' W 090°38'3 5.1
2018-Apr-01 17:30N 38°56' W 090°40'3 5.2
2018-Apr-01 16:52N 38°59' W 090°41'1 3.4
2018-Apr-01 16:30N 39°00' W 090°41'0 0.3
2018-Apr-01 16:00N 39°00' W 090°41'0 0.9
2018-Apr-01 15:30N 39°01' W 090°42'3 5.1
2018-Apr-01 14:59N 39°03' W 090°43'  
Track history (hours):
 
Tides and Currents Weather Stations Pressure Air Temp Water Temp Dewpoint Dewpoint Depression Visibility Wind Speed Wind Dir Waves Ship Positions

Britney Lee

Owner: Western Rivers Boat Management, Inc., Paducah, KY. More information available from US FCC via Universal Licensing System and Coast Guard Vessel Documentation Center.

Last reported at 2018-Apr-11 08:18 UTC. Time now 2018-Apr-24 08:46 UTC.
Position N 38°58' W 090°23'.
Warning: this ship's position is 13 days out of date.

Length 44 m; draft 3 m.

Type: Tow > 200 m length. MMSI: 367129650.

Date/timePositionNaut miles runAvg speedWind from/ knotsBaromVisibWave heightAir tempDewpointWater temp
2018-Apr-11 08:18N 38°58' W 090°23'1 4.3
2018-Apr-11 08:00N 38°57' W 090°22'2 4.4
2018-Apr-11 07:30N 38°56' W 090°20'2 4.3
2018-Apr-11 07:00N 38°55' W 090°17'2 4.5
2018-Apr-11 06:30N 38°55' W 090°14'2 4.2
2018-Apr-11 06:00N 38°54' W 090°12'2 4.6
2018-Apr-11 05:30N 38°52' W 090°10'1 1.4
2018-Apr-11 05:00N 38°52' W 090°09'0 0.5
2018-Apr-11 04:30N 38°52' W 090°09'1 1.8
2018-Apr-11 04:00N 38°51' W 090°08'1 1.8
2018-Apr-11 03:30N 38°51' W 090°07'2 3.4
2018-Apr-11 03:00N 38°49' W 090°07'1 1.2
2018-Apr-11 02:30N 38°49' W 090°07'3 3.9
2018-Apr-11 01:42N 38°46' W 090°08'1 3.2
2018-Apr-11 01:24N 38°45' W 090°09'1 2.4
2018-Apr-11 01:00N 38°44' W 090°10'2 3.0
2018-Apr-11 00:29N 38°43' W 090°10'1 1.5
2018-Apr-10 23:54N 38°42' W 090°11'1 2.4
2018-Apr-10 23:30N 38°41' W 090°11'2 4.6
2018-Apr-10 23:01N 38°39' W 090°11'7 1.3
2018-Apr-10 17:33N 38°33' W 090°15'3 9.0
2018-Apr-10 17:12N 38°35' W 090°12'1 5.3
2018-Apr-10 17:00N 38°36' W 090°12'0 0.2
2018-Apr-10 16:30N 38°36' W 090°12'0 0.0
2018-Apr-10 16:00N 38°36' W 090°12'0 0.0
2018-Apr-10 15:30N 38°36' W 090°12'0 0.0
2018-Apr-10 15:00N 38°36' W 090°12'0 0.0
2018-Apr-10 14:28N 38°36' W 090°12'3 3.6
2018-Apr-10 13:32N 38°33' W 090°15'0 4.9
2018-Apr-10 13:30N 38°33' W 090°15'  
2018-Apr-05 19:19N 38°31' W 090°16'5 5.7
2018-Apr-05 18:25N 38°35' W 090°12'0 0.0
2018-Apr-05 18:00N 38°35' W 090°12'0 0.0
2018-Apr-05 16:40N 38°35' W 090°12'0 0.1
2018-Apr-05 16:18N 38°35' W 090°12'0 0.7
2018-Apr-05 16:00N 38°35' W 090°12'0 0.0
2018-Apr-05 15:30N 38°35' W 090°12'0 0.0
2018-Apr-05 15:00N 38°35' W 090°12'0 0.0
2018-Apr-05 14:30N 38°35' W 090°12'0 0.0
2018-Apr-05 14:00N 38°35' W 090°12'0 0.0
2018-Apr-05 13:30N 38°35' W 090°12'0 0.0
2018-Apr-05 13:00N 38°35' W 090°12'0 0.0
2018-Apr-05 12:30N 38°35' W 090°12'0 0.0
2018-Apr-05 12:00N 38°35' W 090°12'0 0.0
2018-Apr-05 11:30N 38°35' W 090°12'0 0.0
2018-Apr-05 11:00N 38°35' W 090°12'0 0.0
2018-Apr-05 10:30N 38°35' W 090°12'0 0.0
2018-Apr-05 10:00N 38°35' W 090°12'0 0.0
2018-Apr-05 09:30N 38°35' W 090°12'0 0.0
2018-Apr-05 09:00N 38°35' W 090°12'0 0.0
2018-Apr-05 08:30N 38°35' W 090°12'0 0.0
2018-Apr-05 08:00N 38°35' W 090°12'0 0.0
2018-Apr-05 07:30N 38°35' W 090°12'0 0.0
2018-Apr-05 07:00N 38°35' W 090°12'0 0.0
2018-Apr-05 06:30N 38°35' W 090°12'0 0.0
2018-Apr-05 06:00N 38°35' W 090°12'0 0.0
2018-Apr-05 05:30N 38°35' W 090°12'0 0.0
2018-Apr-05 05:00N 38°35' W 090°12'0 0.0
2018-Apr-05 04:30N 38°35' W 090°12'0 0.1
2018-Apr-05 02:47N 38°36' W 090°12'3 9.2
2018-Apr-05 02:30N 38°38' W 090°11'1 2.5
2018-Apr-05 02:00N 38°39' W 090°11'0 0.0
2018-Apr-05 01:28N 38°39' W 090°11'0 0.0
2018-Apr-05 01:00N 38°39' W 090°11'0 0.0
2018-Apr-05 00:28N 38°39' W 090°11'0 0.0
2018-Apr-05 00:00N 38°39' W 090°11'0 0.1
2018-Apr-04 23:30N 38°39' W 090°11'0 0.2
2018-Apr-04 23:00N 38°39' W 090°11'0 0.0
2018-Apr-04 22:08N 38°39' W 090°11'0 3.2
2018-Apr-04 21:59N 38°39' W 090°11'2 3.9
2018-Apr-04 21:30N 38°37' W 090°11'5 3.6
2018-Apr-04 20:06N 38°33' W 090°15'0 3.4
2018-Apr-04 20:00N 38°33' W 090°15'  
2018-Apr-02 15:22N 38°30' W 090°16'3 7.5
2018-Apr-02 15:00N 38°33' W 090°15'4 7.3
2018-Apr-02 14:30N 38°35' W 090°12'0 0.1
2018-Apr-02 13:57N 38°35' W 090°12'0 0.0
2018-Apr-02 12:46N 38°35' W 090°12'0 0.1
2018-Apr-02 12:27N 38°35' W 090°12'0 0.0
2018-Apr-02 11:54N 38°35' W 090°12'0 0.0
2018-Apr-02 11:16N 38°35' W 090°12'0 0.1
2018-Apr-02 10:59N 38°35' W 090°12'3 5.4
2018-Apr-02 10:30N 38°38' W 090°11'4 7.4
2018-Apr-02 10:00N 38°41' W 090°11'1 1.5
2018-Apr-02 09:30N 38°42' W 090°11'1 1.0
2018-Apr-02 09:00N 38°43' W 090°11'1 3.1
2018-Apr-02 08:30N 38°44' W 090°10'2 3.4
2018-Apr-02 07:58N 38°45' W 090°09'2 3.3
2018-Apr-02 07:30N 38°47' W 090°08'2 4.6
2018-Apr-02 07:00N 38°49' W 090°07'3 5.0
2018-Apr-02 06:30N 38°51' W 090°07'2 2.9
2018-Apr-02 05:59N 38°52' W 090°09'1 2.0
2018-Apr-02 05:30N 38°53' W 090°10'2 4.9
2018-Apr-02 05:00N 38°54' W 090°13'1 1.9
2018-Apr-02 04:30N 38°55' W 090°13'0 0.0
2018-Apr-02 04:00N 38°55' W 090°13'0 0.0
2018-Apr-02 03:30N 38°55' W 090°13'0 0.0
2018-Apr-02 03:00N 38°55' W 090°13'0 0.0
2018-Apr-02 02:30N 38°55' W 090°13'0 0.0
2018-Apr-02 02:00N 38°55' W 090°13'0 0.0
2018-Apr-02 01:30N 38°55' W 090°13'0 0.0
2018-Apr-02 01:00N 38°55' W 090°13'0 0.0
2018-Apr-02 00:30N 38°55' W 090°13'0 0.0
2018-Apr-02 00:00N 38°55' W 090°13'0 0.0
2018-Apr-01 23:30N 38°55' W 090°13'0 0.0
2018-Apr-01 23:00N 38°55' W 090°13'0 0.0
2018-Apr-01 22:30N 38°55' W 090°13'2 3.9
2018-Apr-01 22:00N 38°55' W 090°16'3 5.1
2018-Apr-01 21:30N 38°56' W 090°19'3 5.8
2018-Apr-01 21:00N 38°57' W 090°22'3 5.9
2018-Apr-01 20:30N 38°58' W 090°26'3 5.2
2018-Apr-01 20:00N 38°57' W 090°29'2 5.0
2018-Apr-01 19:30N 38°55' W 090°31'2 4.9
2018-Apr-01 19:00N 38°52' W 090°33'2 4.9
2018-Apr-01 18:30N 38°52' W 090°36'2 4.8
2018-Apr-01 18:00N 38°54' W 090°38'3 5.1
2018-Apr-01 17:30N 38°56' W 090°40'3 5.2
2018-Apr-01 16:52N 38°59' W 090°41'1 3.4
2018-Apr-01 16:30N 39°00' W 090°41'0 0.3
2018-Apr-01 16:00N 39°00' W 090°41'0 0.9
2018-Apr-01 15:30N 39°01' W 090°42'3 5.1
2018-Apr-01 14:59N 39°03' W 090°43'  

Dump ship's entire track history